createdAt,value
2017-06-27T00:02:56.192Z,1007.13
2017-06-27T00:07:53.984Z,1007.17
2017-06-27T00:12:49.236Z,1007.13
2017-06-27T00:17:45.325Z,1007.10
2017-06-27T00:22:43.237Z,1007.16
2017-06-27T00:27:38.447Z,1007.16
2017-06-27T00:32:34.092Z,1007.10
2017-06-27T00:37:32.281Z,1007.02
2017-06-27T00:42:27.583Z,1007.08
2017-06-27T00:47:25.726Z,1007.02
2017-06-27T00:52:20.786Z,1006.97
2017-06-27T00:57:18.016Z,1006.97
2017-06-27T01:02:14.457Z,1006.93
2017-06-27T01:07:10.063Z,1006.96
2017-06-27T01:12:07.885Z,1006.96
2017-06-27T01:17:03.008Z,1006.94
2017-06-27T01:21:59.017Z,1006.94
2017-06-27T01:26:54.737Z,1006.83
2017-06-27T01:31:50.329Z,1006.84
2017-06-27T01:36:47.163Z,1006.73
2017-06-27T01:41:45.260Z,1006.74
2017-06-27T01:46:40.374Z,1006.74
2017-06-27T01:51:37.470Z,1006.74
2017-06-27T01:56:33.173Z,1006.82
2017-06-27T02:01:30.003Z,1006.73
2017-06-27T02:06:25.875Z,1006.72
2017-06-27T02:11:21.688Z,1006.51
2017-06-27T02:16:17.533Z,1006.52
2017-06-27T02:21:13.212Z,1006.60
2017-06-27T02:26:08.889Z,1006.51
2017-06-27T02:31:06.845Z,1006.44
2017-06-27T02:36:02.100Z,1006.35
2017-06-27T02:40:58.188Z,1006.36
2017-06-27T02:45:53.969Z,1006.30
2017-06-27T02:50:49.770Z,1006.27
2017-06-27T02:55:45.530Z,1006.39
2017-06-27T03:00:42.350Z,1006.39
2017-06-27T03:05:37.996Z,1006.43
2017-06-27T03:10:34.990Z,1006.50
2017-06-27T03:15:31.500Z,1006.63
2017-06-27T03:20:27.100Z,1006.51
2017-06-27T03:25:23.785Z,1006.53
2017-06-27T03:30:20.647Z,1006.50
2017-06-27T03:35:18.159Z,1006.52
2017-06-27T03:40:13.078Z,1006.42
2017-06-27T03:45:10.069Z,1006.42
2017-06-27T03:50:05.911Z,1006.29
2017-06-27T03:55:02.801Z,1006.28
2017-06-27T03:59:58.854Z,1006.28
2017-06-27T04:04:55.032Z,1006.20
2017-06-27T04:09:52.001Z,1006.27
2017-06-27T04:14:47.685Z,1006.30
2017-06-27T04:19:45.028Z,1006.20
2017-06-27T04:24:40.439Z,1006.20
2017-06-27T04:29:36.962Z,1006.17
2017-06-27T04:34:32.656Z,1006.12
2017-06-27T04:39:28.738Z,1006.06
2017-06-27T04:44:24.749Z,1006.05
2017-06-27T04:49:22.798Z,1005.94
2017-06-27T04:54:19.911Z,1005.98
2017-06-27T04:59:15.495Z,1005.84
2017-06-27T05:04:11.582Z,1005.80
2017-06-27T05:09:07.608Z,1005.83
2017-06-27T05:14:04.808Z,1005.75
2017-06-27T05:19:02.355Z,1005.78
2017-06-27T05:24:00.668Z,1005.69
2017-06-27T05:28:57.917Z,1005.65
2017-06-27T05:33:53.529Z,1005.71
2017-06-27T05:38:49.625Z,1005.65
2017-06-27T05:43:45.554Z,1005.74
2017-06-27T05:48:41.784Z,1005.68
2017-06-27T05:53:37.850Z,1005.67
2017-06-27T05:58:33.478Z,1005.58
2017-06-27T06:03:29.105Z,1005.50
2017-06-27T06:08:25.977Z,1005.43
2017-06-27T06:13:22.474Z,1005.46
2017-06-27T06:18:18.452Z,1005.37
2017-06-27T06:23:14.445Z,1005.42
2017-06-27T06:28:10.514Z,1005.44
2017-06-27T06:33:06.793Z,1005.35
2017-06-27T06:38:02.570Z,1005.47
2017-06-27T06:42:58.688Z,1005.36
2017-06-27T06:47:56.570Z,1005.29
2017-06-27T06:52:52.446Z,1005.33
2017-06-27T06:57:49.197Z,1005.35
2017-06-27T07:02:46.817Z,1005.37
2017-06-27T07:07:42.266Z,1005.29
2017-06-27T07:12:38.112Z,1005.28
2017-06-27T07:17:33.656Z,1005.34
2017-06-27T07:22:30.512Z,1005.22
2017-06-27T07:27:26.264Z,1005.30
2017-06-27T07:32:22.809Z,1005.29
2017-06-27T07:37:19.885Z,1005.24
2017-06-27T07:42:18.113Z,1005.30
2017-06-27T07:47:15.903Z,1005.24
2017-06-27T07:52:11.400Z,1005.20
2017-06-27T07:57:08.626Z,1005.17
2017-06-27T08:02:05.166Z,1005.05
2017-06-27T08:07:02.769Z,1005.14
2017-06-27T08:11:59.075Z,1005.04
2017-06-27T08:16:55.820Z,1004.98
2017-06-27T08:21:52.922Z,1004.99
2017-06-27T08:26:48.594Z,1005.02
2017-06-27T08:31:44.474Z,1004.97
2017-06-27T08:36:40.905Z,1004.94
2017-06-27T08:41:36.771Z,1004.81
2017-06-27T08:46:33.832Z,1004.87
2017-06-27T08:51:31.065Z,1004.77
2017-06-27T08:56:27.779Z,1004.73
2017-06-27T09:01:24.308Z,1004.60
2017-06-27T09:06:20.389Z,1004.68
2017-06-27T09:11:16.083Z,1004.63
2017-06-27T09:16:11.692Z,1004.54
2017-06-27T09:21:07.093Z,1004.56
2017-06-27T09:26:03.081Z,1004.48
2017-06-27T09:31:00.159Z,1004.54
2017-06-27T09:35:59.950Z,1004.46
2017-06-27T09:40:54.886Z,1004.38
2017-06-27T09:45:51.683Z,1004.37
2017-06-27T09:50:48.466Z,1004.37
2017-06-27T09:55:45.089Z,1004.41
2017-06-27T10:00:41.915Z,1004.33
2017-06-27T10:05:37.552Z,1004.21
2017-06-27T10:10:35.117Z,1004.32
2017-06-27T10:15:30.705Z,1004.23
2017-06-27T10:20:27.099Z,1004.26
2017-06-27T10:25:24.289Z,1004.22
2017-06-27T10:30:22.614Z,1004.12
2017-06-27T10:35:18.997Z,1004.12
2017-06-27T10:40:14.570Z,1003.94
2017-06-27T10:45:11.590Z,1004.06
2017-06-27T10:50:07.288Z,1004.01
2017-06-27T10:55:03.226Z,1003.88
2017-06-27T11:00:01.294Z,1003.83
2017-06-27T11:04:57.615Z,1003.73
2017-06-27T11:09:53.116Z,1003.85
2017-06-27T11:14:49.517Z,1003.86
2017-06-27T11:19:46.721Z,1003.69
2017-06-27T11:24:42.505Z,1003.77
2017-06-27T11:29:38.543Z,1003.72
2017-06-27T11:34:35.734Z,1003.66
2017-06-27T11:39:31.530Z,1003.55
2017-06-27T11:44:28.613Z,1003.50
2017-06-27T11:49:24.272Z,1003.37
2017-06-27T11:54:21.176Z,1003.36
2017-06-27T11:59:17.124Z,1003.30
2017-06-27T12:04:14.231Z,1003.32
2017-06-27T12:09:10.070Z,1003.21
2017-06-27T12:14:08.127Z,1003.21
2017-06-27T12:19:04.461Z,1003.20
2017-06-27T12:24:02.322Z,1003.15
2017-06-27T12:28:59.591Z,1003.07
2017-06-27T12:33:54.818Z,1003.00
2017-06-27T12:38:50.925Z,1003.04
2017-06-27T12:43:46.739Z,1002.96
2017-06-27T12:48:42.649Z,1002.99
2017-06-27T12:53:39.594Z,1002.89
2017-06-27T12:58:35.336Z,1002.82
2017-06-27T13:03:32.129Z,1002.83
2017-06-27T13:08:27.648Z,1002.78
2017-06-27T13:13:25.575Z,1002.67
2017-06-27T13:18:20.665Z,1002.73
2017-06-27T13:23:18.366Z,1002.70
2017-06-27T13:28:13.714Z,1002.60
2017-06-27T13:33:09.570Z,1002.58
2017-06-27T13:38:05.526Z,1002.47
2017-06-27T13:43:01.565Z,1002.33
2017-06-27T13:47:59.004Z,1002.20
2017-06-27T13:52:54.849Z,1002.28
2017-06-27T13:57:51.839Z,1002.26
2017-06-27T14:02:48.126Z,1002.07
2017-06-27T14:07:44.150Z,1002.13
2017-06-27T14:12:39.903Z,1002.14
2017-06-27T14:17:36.282Z,1001.98
2017-06-27T14:22:34.360Z,1002.00
2017-06-27T14:27:29.516Z,1001.95
2017-06-27T14:32:26.337Z,1001.84
2017-06-27T14:37:23.833Z,1001.69
2017-06-27T14:42:19.193Z,1001.67
2017-06-27T14:47:15.219Z,1001.59
2017-06-27T14:52:12.255Z,1001.38
2017-06-27T14:57:07.974Z,1001.54
2017-06-27T15:02:03.920Z,1001.34
2017-06-27T15:07:00.111Z,1001.45
2017-06-27T15:11:56.912Z,1001.34
2017-06-27T15:16:53.844Z,1001.16
2017-06-27T15:21:49.462Z,1001.05
2017-06-27T15:26:46.457Z,1001.00
2017-06-27T15:31:42.886Z,1000.97
2017-06-27T15:36:38.510Z,1001.04
2017-06-27T15:41:34.565Z,1000.90
2017-06-27T15:46:31.741Z,1000.79
2017-06-27T15:51:29.363Z,1000.79
2017-06-27T15:56:24.445Z,1000.65
2017-06-27T16:01:20.302Z,1000.58
2017-06-27T16:06:16.421Z,1000.56
2017-06-27T16:11:14.409Z,1000.55
2017-06-27T16:16:09.851Z,1000.53
2017-06-27T16:21:06.896Z,1000.48
2017-06-27T16:26:02.754Z,1000.36
2017-06-27T16:30:59.660Z,1000.32
2017-06-27T16:35:55.313Z,1000.31
2017-06-27T16:40:53.745Z,1000.22
2017-06-27T16:45:50.191Z,1000.16
2017-06-27T16:50:46.931Z,1000.14
2017-06-27T16:55:43.535Z,1000.02
2017-06-27T17:00:39.271Z,1000.01
2017-06-27T17:05:35.766Z,999.97
2017-06-27T17:10:32.749Z,999.96
2017-06-27T17:15:28.789Z,999.89
2017-06-27T17:20:25.892Z,999.85
2017-06-27T17:25:21.269Z,999.80
2017-06-27T17:30:18.265Z,999.77
2017-06-27T17:35:14.913Z,999.82
2017-06-27T17:40:11.293Z,999.69
2017-06-27T17:45:08.297Z,999.60
2017-06-27T17:50:03.830Z,999.51
2017-06-27T17:54:59.727Z,999.42
2017-06-27T17:59:56.665Z,999.40
2017-06-27T18:04:52.392Z,999.43
2017-06-27T18:09:50.894Z,999.38
2017-06-27T18:14:47.286Z,999.30
2017-06-27T18:19:44.261Z,999.28
2017-06-27T18:24:41.134Z,999.07
2017-06-27T18:29:37.688Z,999.02
2017-06-27T18:34:34.758Z,999.06
2017-06-27T18:39:31.461Z,999.18
2017-06-27T18:44:27.799Z,999.20
2017-06-27T18:49:23.833Z,999.17
2017-06-27T18:54:19.588Z,999.09
2017-06-27T18:59:15.433Z,999.07
2017-06-27T19:04:11.230Z,999.05
2017-06-27T19:09:07.962Z,999.02
2017-06-27T19:14:03.419Z,998.90
2017-06-27T19:19:00.947Z,998.86
2017-06-27T19:23:58.793Z,998.82
2017-06-27T19:28:55.140Z,998.73
2017-06-27T19:33:51.744Z,998.57
2017-06-27T19:38:47.284Z,998.68
2017-06-27T19:43:43.796Z,998.53
2017-06-27T19:48:39.720Z,998.58
2017-06-27T19:53:35.572Z,998.36
2017-06-27T19:58:31.452Z,998.46
2017-06-27T20:03:28.011Z,998.36
2017-06-27T20:08:23.569Z,998.34
2017-06-27T20:13:20.875Z,998.45
2017-06-27T20:18:16.287Z,998.35
2017-06-27T20:23:12.446Z,998.22
2017-06-27T20:28:08.520Z,998.31
2017-06-27T20:33:05.404Z,998.20
2017-06-27T20:38:01.423Z,998.18
2017-06-27T20:42:57.415Z,998.05
2017-06-27T20:47:53.217Z,998.03
2017-06-27T20:52:49.392Z,997.96
2017-06-27T20:57:46.259Z,997.90
2017-06-27T21:02:41.868Z,997.78
2017-06-27T21:07:38.656Z,997.73
2017-06-27T21:12:35.094Z,997.63
2017-06-27T21:17:32.170Z,997.65
2017-06-27T21:22:27.835Z,997.63
2017-06-27T21:27:24.522Z,997.58
2017-06-27T21:32:21.048Z,997.63
2017-06-27T21:37:16.609Z,997.38
2017-06-27T21:42:13.577Z,997.33
2017-06-27T21:47:09.146Z,997.39
2017-06-27T21:52:06.095Z,997.27
2017-06-27T21:57:02.701Z,997.25
2017-06-27T22:01:58.319Z,997.19
2017-06-27T22:06:55.694Z,997.24
2017-06-27T22:11:52.106Z,997.18
2017-06-27T22:16:49.039Z,997.04
2017-06-27T22:21:46.075Z,997.10
2017-06-27T22:26:42.800Z,997.11
2017-06-27T22:31:38.556Z,997.03
2017-06-27T22:36:34.530Z,997.08
2017-06-27T22:41:30.482Z,997.04
2017-06-27T22:46:27.364Z,996.89
2017-06-27T22:51:23.368Z,996.79
2017-06-27T22:56:20.543Z,996.77
2017-06-27T23:01:16.063Z,996.65
2017-06-27T23:06:12.152Z,996.53
2017-06-27T23:11:09.322Z,996.53
2017-06-27T23:16:04.980Z,996.49
2017-06-27T23:21:00.756Z,996.37
2017-06-27T23:25:57.655Z,996.35
2017-06-27T23:30:54.231Z,996.18
2017-06-27T23:35:51.183Z,996.09
2017-06-27T23:40:46.758Z,996.06
2017-06-27T23:45:42.628Z,995.93
2017-06-27T23:50:39.366Z,995.89
2017-06-27T23:55:36.902Z,995.71
